sensor_id;sensor_type;location;lat;lon;timestamp;temperature;humidity
352;DHT22;164;50.784;6.496;2022-07-29T00:01:51;19.40;1.00
352;DHT22;164;50.784;6.496;2022-07-29T00:04:21;19.40;1.00
352;DHT22;164;50.784;6.496;2022-07-29T00:06:48;19.40;1.00
352;DHT22;164;50.784;6.496;2022-07-29T00:09:16;19.40;1.00
352;DHT22;164;50.784;6.496;2022-07-29T00:11:43;19.40;1.00
352;DHT22;164;50.784;6.496;2022-07-29T00:14:16;19.40;1.00
352;DHT22;164;50.784;6.496;2022-07-29T00:16:43;19.40;1.00
352;DHT22;164;50.784;6.496;2022-07-29T00:19:13;19.40;1.00
352;DHT22;164;50.784;6.496;2022-07-29T00:21:40;19.30;1.00
352;DHT22;164;50.784;6.496;2022-07-29T00:24:10;19.30;1.00
352;DHT22;164;50.784;6.496;2022-07-29T00:26:38;19.20;1.00
352;DHT22;164;50.784;6.496;2022-07-29T00:29:05;19.10;1.00
352;DHT22;164;50.784;6.496;2022-07-29T00:31:35;19.10;1.00
352;DHT22;164;50.784;6.496;2022-07-29T00:34:02;19.00;1.00
352;DHT22;164;50.784;6.496;2022-07-29T00:36:32;19.00;1.00
352;DHT22;164;50.784;6.496;2022-07-29T00:39:01;19.00;1.00
352;DHT22;164;50.784;6.496;2022-07-29T00:41:27;18.90;1.00
352;DHT22;164;50.784;6.496;2022-07-29T00:43:56;18.90;1.00
352;DHT22;164;50.784;6.496;2022-07-29T00:46:25;18.90;1.00
352;DHT22;164;50.784;6.496;2022-07-29T00:48:52;18.80;1.00
352;DHT22;164;50.784;6.496;2022-07-29T00:51:19;18.80;1.00
352;DHT22;164;50.784;6.496;2022-07-29T00:53:49;18.80;1.00
352;DHT22;164;50.784;6.496;2022-07-29T00:56:16;18.70;1.00
352;DHT22;164;50.784;6.496;2022-07-29T00:58:47;18.60;1.00
352;DHT22;164;50.784;6.496;2022-07-29T01:01:16;18.60;1.00
352;DHT22;164;50.784;6.496;2022-07-29T01:03:43;18.60;1.00
352;DHT22;164;50.784;6.496;2022-07-29T01:06:09;18.50;1.00
352;DHT22;164;50.784;6.496;2022-07-29T01:08:37;18.50;1.00
352;DHT22;164;50.784;6.496;2022-07-29T01:11:04;18.50;1.00
352;DHT22;164;50.784;6.496;2022-07-29T01:13:31;18.40;1.00
352;DHT22;164;50.784;6.496;2022-07-29T01:16:06;18.40;1.00
352;DHT22;164;50.784;6.496;2022-07-29T01:18:44;18.40;1.00
352;DHT22;164;50.784;6.496;2022-07-29T01:21:40;18.40;1.00
352;DHT22;164;50.784;6.496;2022-07-29T01:24:30;18.40;1.00
352;DHT22;164;50.784;6.496;2022-07-29T01:27:06;18.40;1.00
352;DHT22;164;50.784;6.496;2022-07-29T01:29:47;18.40;1.00
352;DHT22;164;50.784;6.496;2022-07-29T01:32:25;18.30;1.00
352;DHT22;164;50.784;6.496;2022-07-29T01:35:00;18.30;1.00
352;DHT22;164;50.784;6.496;2022-07-29T01:37:31;18.40;1.00
352;DHT22;164;50.784;6.496;2022-07-29T01:40:08;18.40;1.00
352;DHT22;164;50.784;6.496;2022-07-29T01:42:42;18.40;1.00
352;DHT22;164;50.784;6.496;2022-07-29T01:45:20;18.40;1.00
352;DHT22;164;50.784;6.496;2022-07-29T01:47:57;18.40;1.00
352;DHT22;164;50.784;6.496;2022-07-29T01:50:38;18.40;1.00
352;DHT22;164;50.784;6.496;2022-07-29T01:53:09;18.40;1.00
352;DHT22;164;50.784;6.496;2022-07-29T01:55:40;18.40;1.00
352;DHT22;164;50.784;6.496;2022-07-29T01:58:11;18.40;1.00
352;DHT22;164;50.784;6.496;2022-07-29T02:00:40;18.50;1.00
352;DHT22;164;50.784;6.496;2022-07-29T02:03:11;18.50;1.00
352;DHT22;164;50.784;6.496;2022-07-29T02:05:41;18.50;1.00
352;DHT22;164;50.784;6.496;2022-07-29T02:08:09;18.50;1.00
352;DHT22;164;50.784;6.496;2022-07-29T02:10:38;18.50;1.00
352;DHT22;164;50.784;6.496;2022-07-29T02:13:07;18.60;1.00
352;DHT22;164;50.784;6.496;2022-07-29T02:15:40;18.60;1.00
352;DHT22;164;50.784;6.496;2022-07-29T02:18:11;18.60;1.00
352;DHT22;164;50.784;6.496;2022-07-29T02:20:45;18.60;1.00
352;DHT22;164;50.784;6.496;2022-07-29T02:23:15;18.50;1.00
352;DHT22;164;50.784;6.496;2022-07-29T02:25:45;18.50;1.00
352;DHT22;164;50.784;6.496;2022-07-29T02:28:14;18.50;1.00
352;DHT22;164;50.784;6.496;2022-07-29T02:30:44;18.50;1.00
352;DHT22;164;50.784;6.496;2022-07-29T02:33:17;18.50;1.00
352;DHT22;164;50.784;6.496;2022-07-29T02:35:46;18.60;1.00
352;DHT22;164;50.784;6.496;2022-07-29T02:38:17;18.60;1.00
352;DHT22;164;50.784;6.496;2022-07-29T02:41:08;18.60;1.00
352;DHT22;164;50.784;6.496;2022-07-29T02:43:37;18.70;1.00
352;DHT22;164;50.784;6.496;2022-07-29T02:46:11;18.70;1.00
352;DHT22;164;50.784;6.496;2022-07-29T02:48:51;18.70;1.00
352;DHT22;164;50.784;6.496;2022-07-29T02:51:23;18.60;1.00
352;DHT22;164;50.784;6.496;2022-07-29T02:53:53;18.60;1.00
352;DHT22;164;50.784;6.496;2022-07-29T02:56:24;18.50;1.00
352;DHT22;164;50.784;6.496;2022-07-29T02:58:54;18.50;1.00
352;DHT22;164;50.784;6.496;2022-07-29T03:01:25;18.50;1.00
352;DHT22;164;50.784;6.496;2022-07-29T03:04:01;18.50;1.00
352;DHT22;164;50.784;6.496;2022-07-29T03:06:30;18.50;1.00
352;DHT22;164;50.784;6.496;2022-07-29T03:09:00;18.50;1.00
352;DHT22;164;50.784;6.496;2022-07-29T03:11:29;18.50;1.00
352;DHT22;164;50.784;6.496;2022-07-29T03:13:57;18.50;1.00
352;DHT22;164;50.784;6.496;2022-07-29T03:16:25;18.50;1.00
352;DHT22;164;50.784;6.496;2022-07-29T03:18:56;18.50;1.00
352;DHT22;164;50.784;6.496;2022-07-29T03:21:25;18.60;1.00
352;DHT22;164;50.784;6.496;2022-07-29T03:23:52;18.60;1.00
352;DHT22;164;50.784;6.496;2022-07-29T03:26:19;18.50;1.00
352;DHT22;164;50.784;6.496;2022-07-29T03:28:48;18.50;1.00
352;DHT22;164;50.784;6.496;2022-07-29T03:31:17;18.50;1.00
352;DHT22;164;50.784;6.496;2022-07-29T03:33:46;18.40;1.00
352;DHT22;164;50.784;6.496;2022-07-29T03:36:13;18.40;1.00
352;DHT22;164;50.784;6.496;2022-07-29T03:38:41;18.40;1.00
352;DHT22;164;50.784;6.496;2022-07-29T03:41:13;18.40;1.00
352;DHT22;164;50.784;6.496;2022-07-29T03:49:40;18.20;1.00
352;DHT22;164;50.784;6.496;2022-07-29T03:52:07;18.20;1.00
352;DHT22;164;50.784;6.496;2022-07-29T03:54:37;18.20;1.00
352;DHT22;164;50.784;6.496;2022-07-29T03:57:07;18.20;1.00
352;DHT22;164;50.784;6.496;2022-07-29T03:59:39;18.20;1.00
352;DHT22;164;50.784;6.496;2022-07-29T04:02:11;18.20;1.00
352;DHT22;164;50.784;6.496;2022-07-29T04:04:40;18.20;1.00
352;DHT22;164;50.784;6.496;2022-07-29T04:07:06;18.20;1.00
352;DHT22;164;50.784;6.496;2022-07-29T04:09:36;18.20;1.00
352;DHT22;164;50.784;6.496;2022-07-29T04:12:04;18.20;1.00
352;DHT22;164;50.784;6.496;2022-07-29T04:14:32;18.20;1.00
352;DHT22;164;50.784;6.496;2022-07-29T04:17:02;18.20;1.00
352;DHT22;164;50.784;6.496;2022-07-29T04:19:29;18.20;1.00
352;DHT22;164;50.784;6.496;2022-07-29T04:22:03;18.20;1.00
352;DHT22;164;50.784;6.496;2022-07-29T04:24:30;18.20;1.00
352;DHT22;164;50.784;6.496;2022-07-29T04:26:57;18.10;1.00
352;DHT22;164;50.784;6.496;2022-07-29T04:29:24;18.10;1.00
352;DHT22;164;50.784;6.496;2022-07-29T04:31:51;18.10;1.00
352;DHT22;164;50.784;6.496;2022-07-29T04:34:21;18.10;1.00
352;DHT22;164;50.784;6.496;2022-07-29T04:36:48;18.10;1.00
352;DHT22;164;50.784;6.496;2022-07-29T04:39:18;18.10;1.00
352;DHT22;164;50.784;6.496;2022-07-29T04:41:45;18.20;1.00
352;DHT22;164;50.784;6.496;2022-07-29T04:44:12;18.20;1.00
352;DHT22;164;50.784;6.496;2022-07-29T04:46:39;18.10;1.00
352;DHT22;164;50.784;6.496;2022-07-29T04:49:09;18.20;1.00
352;DHT22;164;50.784;6.496;2022-07-29T04:51:36;18.20;1.00
352;DHT22;164;50.784;6.496;2022-07-29T04:54:03;18.20;1.00
352;DHT22;164;50.784;6.496;2022-07-29T04:56:31;18.20;1.00
352;DHT22;164;50.784;6.496;2022-07-29T04:59:02;18.20;1.00
352;DHT22;164;50.784;6.496;2022-07-29T05:01:30;18.20;1.00
352;DHT22;164;50.784;6.496;2022-07-29T05:03:57;18.20;1.00
352;DHT22;164;50.784;6.496;2022-07-29T05:06:24;18.00;1.00
352;DHT22;164;50.784;6.496;2022-07-29T05:08:51;18.00;1.00
352;DHT22;164;50.784;6.496;2022-07-29T05:11:18;18.00;1.00
352;DHT22;164;50.784;6.496;2022-07-29T05:13:46;17.90;1.00
352;DHT22;164;50.784;6.496;2022-07-29T05:16:14;18.00;1.00
352;DHT22;164;50.784;6.496;2022-07-29T05:18:43;17.90;1.00
352;DHT22;164;50.784;6.496;2022-07-29T05:21:10;18.00;1.00
352;DHT22;164;50.784;6.496;2022-07-29T05:23:37;18.00;1.00
352;DHT22;164;50.784;6.496;2022-07-29T05:26:07;18.00;1.00
352;DHT22;164;50.784;6.496;2022-07-29T05:28:34;18.00;1.00
352;DHT22;164;50.784;6.496;2022-07-29T05:31:05;18.00;1.00
352;DHT22;164;50.784;6.496;2022-07-29T05:33:32;17.90;1.00
352;DHT22;164;50.784;6.496;2022-07-29T05:35:59;17.80;1.00
352;DHT22;164;50.784;6.496;2022-07-29T05:38:26;17.70;1.00
352;DHT22;164;50.784;6.496;2022-07-29T05:40:56;17.40;1.00
352;DHT22;164;50.784;6.496;2022-07-29T05:43:23;17.20;1.00
352;DHT22;164;50.784;6.496;2022-07-29T05:45:50;17.00;1.00
352;DHT22;164;50.784;6.496;2022-07-29T05:48:18;17.00;1.00
352;DHT22;164;50.784;6.496;2022-07-29T05:50:49;16.90;1.00
352;DHT22;164;50.784;6.496;2022-07-29T05:53:15;16.90;1.00
352;DHT22;164;50.784;6.496;2022-07-29T05:55:42;16.90;1.00
352;DHT22;164;50.784;6.496;2022-07-29T05:58:12;16.90;1.00
352;DHT22;164;50.784;6.496;2022-07-29T06:00:39;16.90;1.00
352;DHT22;164;50.784;6.496;2022-07-29T06:03:06;16.90;1.00
352;DHT22;164;50.784;6.496;2022-07-29T06:05:35;16.90;1.00
352;DHT22;164;50.784;6.496;2022-07-29T06:08:02;17.00;1.00
352;DHT22;164;50.784;6.496;2022-07-29T06:10:31;17.00;1.00
352;DHT22;164;50.784;6.496;2022-07-29T06:12:58;17.10;1.00
352;DHT22;164;50.784;6.496;2022-07-29T06:15:25;17.10;1.00
352;DHT22;164;50.784;6.496;2022-07-29T06:17:52;17.10;1.00
352;DHT22;164;50.784;6.496;2022-07-29T06:20:19;17.20;1.00
352;DHT22;164;50.784;6.496;2022-07-29T06:22:47;17.20;1.00
352;DHT22;164;50.784;6.496;2022-07-29T06:25:17;17.30;1.00
352;DHT22;164;50.784;6.496;2022-07-29T06:27:44;17.40;1.00
352;DHT22;164;50.784;6.496;2022-07-29T06:30:14;17.40;1.00
352;DHT22;164;50.784;6.496;2022-07-29T06:32:41;17.50;1.00
352;DHT22;164;50.784;6.496;2022-07-29T06:35:09;17.50;1.00
352;DHT22;164;50.784;6.496;2022-07-29T06:37:35;17.40;1.00
352;DHT22;164;50.784;6.496;2022-07-29T06:40:11;17.40;1.00
352;DHT22;164;50.784;6.496;2022-07-29T06:42:55;17.30;1.00
352;DHT22;164;50.784;6.496;2022-07-29T06:45:25;17.30;1.00
352;DHT22;164;50.784;6.496;2022-07-29T06:47:52;17.20;1.00
352;DHT22;164;50.784;6.496;2022-07-29T06:50:20;17.20;1.00
352;DHT22;164;50.784;6.496;2022-07-29T06:52:47;17.10;1.00
352;DHT22;164;50.784;6.496;2022-07-29T06:55:18;17.00;1.00
352;DHT22;164;50.784;6.496;2022-07-29T06:57:45;17.00;1.00
352;DHT22;164;50.784;6.496;2022-07-29T07:00:13;16.90;1.00
352;DHT22;164;50.784;6.496;2022-07-29T07:02:40;16.90;1.00
352;DHT22;164;50.784;6.496;2022-07-29T07:05:08;16.90;1.00
352;DHT22;164;50.784;6.496;2022-07-29T07:07:35;16.90;1.00
352;DHT22;164;50.784;6.496;2022-07-29T07:10:05;16.90;1.00
352;DHT22;164;50.784;6.496;2022-07-29T07:12:34;17.00;1.00
352;DHT22;164;50.784;6.496;2022-07-29T07:15:01;17.10;1.00
352;DHT22;164;50.784;6.496;2022-07-29T07:17:28;17.20;1.00
352;DHT22;164;50.784;6.496;2022-07-29T07:19:56;17.30;1.00
352;DHT22;164;50.784;6.496;2022-07-29T07:22:23;17.50;1.00
352;DHT22;164;50.784;6.496;2022-07-29T07:24:49;17.60;1.00
352;DHT22;164;50.784;6.496;2022-07-29T07:27:19;17.70;1.00
352;DHT22;164;50.784;6.496;2022-07-29T07:29:47;17.80;1.00
352;DHT22;164;50.784;6.496;2022-07-29T07:32:14;18.00;1.00
352;DHT22;164;50.784;6.496;2022-07-29T07:34:41;18.20;1.00
352;DHT22;164;50.784;6.496;2022-07-29T07:37:08;18.40;1.00
352;DHT22;164;50.784;6.496;2022-07-29T07:39:35;18.50;1.00
352;DHT22;164;50.784;6.496;2022-07-29T07:42:02;18.60;1.00
352;DHT22;164;50.784;6.496;2022-07-29T07:44:29;18.70;1.00
352;DHT22;164;50.784;6.496;2022-07-29T07:46:58;18.80;1.00
352;DHT22;164;50.784;6.496;2022-07-29T07:49:27;18.80;1.00
352;DHT22;164;50.784;6.496;2022-07-29T07:51:54;18.70;1.00
352;DHT22;164;50.784;6.496;2022-07-29T07:54:21;18.70;1.00
352;DHT22;164;50.784;6.496;2022-07-29T07:56:48;18.70;1.00
352;DHT22;164;50.784;6.496;2022-07-29T07:59:16;18.60;1.00
352;DHT22;164;50.784;6.496;2022-07-29T08:01:44;18.60;1.00
352;DHT22;164;50.784;6.496;2022-07-29T08:04:12;18.60;1.00
352;DHT22;164;50.784;6.496;2022-07-29T08:06:39;18.70;1.00
352;DHT22;164;50.784;6.496;2022-07-29T08:09:06;18.70;1.00
352;DHT22;164;50.784;6.496;2022-07-29T08:11:33;18.80;1.00
352;DHT22;164;50.784;6.496;2022-07-29T08:14:00;19.00;1.00
352;DHT22;164;50.784;6.496;2022-07-29T08:16:28;19.10;1.00
352;DHT22;164;50.784;6.496;2022-07-29T08:18:55;19.30;1.00
352;DHT22;164;50.784;6.496;2022-07-29T08:21:24;19.50;1.00
352;DHT22;164;50.784;6.496;2022-07-29T08:23:51;19.70;1.00
352;DHT22;164;50.784;6.496;2022-07-29T08:26:39;19.80;1.00
352;DHT22;164;50.784;6.496;2022-07-29T08:29:06;19.90;1.00
352;DHT22;164;50.784;6.496;2022-07-29T08:31:33;20.00;1.00
352;DHT22;164;50.784;6.496;2022-07-29T08:34:00;20.20;1.00
352;DHT22;164;50.784;6.496;2022-07-29T08:36:32;20.40;1.00
352;DHT22;164;50.784;6.496;2022-07-29T08:39:03;20.60;1.00
352;DHT22;164;50.784;6.496;2022-07-29T08:41:30;20.90;1.00
352;DHT22;164;50.784;6.496;2022-07-29T08:43:57;21.00;1.00
352;DHT22;164;50.784;6.496;2022-07-29T08:46:24;21.20;1.00
352;DHT22;164;50.784;6.496;2022-07-29T08:48:52;21.40;1.00
352;DHT22;164;50.784;6.496;2022-07-29T08:51:20;21.60;1.00
352;DHT22;164;50.784;6.496;2022-07-29T08:53:50;21.60;1.00
352;DHT22;164;50.784;6.496;2022-07-29T08:56:20;21.90;1.00
352;DHT22;164;50.784;6.496;2022-07-29T08:58:49;22.30;1.00
352;DHT22;164;50.784;6.496;2022-07-29T09:01:17;22.60;1.00
352;DHT22;164;50.784;6.496;2022-07-29T09:03:48;22.80;1.00
352;DHT22;164;50.784;6.496;2022-07-29T09:06:18;22.80;1.00
352;DHT22;164;50.784;6.496;2022-07-29T09:08:46;22.90;1.00
352;DHT22;164;50.784;6.496;2022-07-29T09:11:15;23.00;1.00
352;DHT22;164;50.784;6.496;2022-07-29T09:13:42;23.10;1.00
352;DHT22;164;50.784;6.496;2022-07-29T09:16:12;23.20;1.00
352;DHT22;164;50.784;6.496;2022-07-29T09:18:43;23.10;1.00
352;DHT22;164;50.784;6.496;2022-07-29T09:21:12;23.10;1.00
352;DHT22;164;50.784;6.496;2022-07-29T09:24:04;23.10;1.00
352;DHT22;164;50.784;6.496;2022-07-29T09:26:38;23.20;1.00
352;DHT22;164;50.784;6.496;2022-07-29T09:29:09;23.30;1.00
352;DHT22;164;50.784;6.496;2022-07-29T09:31:41;23.30;1.00
352;DHT22;164;50.784;6.496;2022-07-29T09:34:13;23.40;1.00
352;DHT22;164;50.784;6.496;2022-07-29T09:36:42;23.50;1.00
352;DHT22;164;50.784;6.496;2022-07-29T09:39:09;23.60;1.00
352;DHT22;164;50.784;6.496;2022-07-29T09:41:49;23.70;1.00
352;DHT22;164;50.784;6.496;2022-07-29T09:44:18;23.80;1.00
352;DHT22;164;50.784;6.496;2022-07-29T09:46:54;24.10;1.00
352;DHT22;164;50.784;6.496;2022-07-29T09:49:23;24.30;1.00
352;DHT22;164;50.784;6.496;2022-07-29T09:52:00;24.50;1.00
352;DHT22;164;50.784;6.496;2022-07-29T09:54:27;24.60;1.00
352;DHT22;164;50.784;6.496;2022-07-29T09:57:05;24.60;1.00
352;DHT22;164;50.784;6.496;2022-07-29T09:59:34;24.60;1.00
352;DHT22;164;50.784;6.496;2022-07-29T10:02:01;24.60;1.00
352;DHT22;164;50.784;6.496;2022-07-29T10:04:41;24.60;1.00
352;DHT22;164;50.784;6.496;2022-07-29T10:07:09;24.50;1.00
352;DHT22;164;50.784;6.496;2022-07-29T10:09:36;24.20;1.00
352;DHT22;164;50.784;6.496;2022-07-29T10:12:07;24.10;1.00
352;DHT22;164;50.784;6.496;2022-07-29T10:14:35;24.10;1.00
352;DHT22;164;50.784;6.496;2022-07-29T10:17:04;24.20;1.00
352;DHT22;164;50.784;6.496;2022-07-29T10:19:32;24.20;1.00
352;DHT22;164;50.784;6.496;2022-07-29T10:22:00;24.20;1.00
352;DHT22;164;50.784;6.496;2022-07-29T10:24:28;24.20;1.00
352;DHT22;164;50.784;6.496;2022-07-29T10:26:57;24.10;1.00
352;DHT22;164;50.784;6.496;2022-07-29T10:29:26;24.20;1.00
352;DHT22;164;50.784;6.496;2022-07-29T10:35:06;24.40;1.00
352;DHT22;164;50.784;6.496;2022-07-29T10:37:46;24.50;1.00
352;DHT22;164;50.784;6.496;2022-07-29T10:40:21;24.60;1.00
352;DHT22;164;50.784;6.496;2022-07-29T10:43:16;24.70;1.00
352;DHT22;164;50.784;6.496;2022-07-29T10:45:47;24.80;1.00
352;DHT22;164;50.784;6.496;2022-07-29T10:48:14;25.00;1.00
352;DHT22;164;50.784;6.496;2022-07-29T10:50:53;25.20;1.00
352;DHT22;164;50.784;6.496;2022-07-29T10:53:20;24.90;1.00
352;DHT22;164;50.784;6.496;2022-07-29T10:55:48;24.90;1.00
352;DHT22;164;50.784;6.496;2022-07-29T10:58:18;24.90;1.00
352;DHT22;164;50.784;6.496;2022-07-29T11:00:48;25.00;1.00
352;DHT22;164;50.784;6.496;2022-07-29T11:03:42;25.10;1.00
352;DHT22;164;50.784;6.496;2022-07-29T11:06:11;25.10;1.00
352;DHT22;164;50.784;6.496;2022-07-29T11:08:38;25.00;1.00
352;DHT22;164;50.784;6.496;2022-07-29T11:11:35;24.80;1.00
352;DHT22;164;50.784;6.496;2022-07-29T11:14:06;24.70;1.00
352;DHT22;164;50.784;6.496;2022-07-29T11:17:03;24.80;1.00
352;DHT22;164;50.784;6.496;2022-07-29T11:19:31;24.80;1.00
352;DHT22;164;50.784;6.496;2022-07-29T11:21:58;24.70;1.00
352;DHT22;164;50.784;6.496;2022-07-29T11:24:27;24.80;1.00
352;DHT22;164;50.784;6.496;2022-07-29T11:27:15;24.80;1.00
352;DHT22;164;50.784;6.496;2022-07-29T11:29:51;24.80;1.00
352;DHT22;164;50.784;6.496;2022-07-29T11:32:20;25.00;1.00
352;DHT22;164;50.784;6.496;2022-07-29T11:34:48;25.20;1.00
352;DHT22;164;50.784;6.496;2022-07-29T11:37:23;25.20;1.00
352;DHT22;164;50.784;6.496;2022-07-29T11:40:14;25.20;1.00
352;DHT22;164;50.784;6.496;2022-07-29T11:42:46;25.00;1.00
352;DHT22;164;50.784;6.496;2022-07-29T11:45:24;25.10;1.00
352;DHT22;164;50.784;6.496;2022-07-29T11:47:56;25.20;1.00
352;DHT22;164;50.784;6.496;2022-07-29T11:50:35;25.40;1.00
352;DHT22;164;50.784;6.496;2022-07-29T11:53:10;25.70;1.00
352;DHT22;164;50.784;6.496;2022-07-29T11:55:39;25.60;1.00
352;DHT22;164;50.784;6.496;2022-07-29T11:58:06;25.60;1.00
352;DHT22;164;50.784;6.496;2022-07-29T12:00:34;25.50;1.00
352;DHT22;164;50.784;6.496;2022-07-29T12:03:05;25.40;1.00
352;DHT22;164;50.784;6.496;2022-07-29T12:05:39;25.50;1.00
352;DHT22;164;50.784;6.496;2022-07-29T12:11:26;25.60;1.00
352;DHT22;164;50.784;6.496;2022-07-29T12:13:53;25.60;1.00
352;DHT22;164;50.784;6.496;2022-07-29T12:16:21;25.50;1.00
352;DHT22;164;50.784;6.496;2022-07-29T12:18:57;25.50;1.00
352;DHT22;164;50.784;6.496;2022-07-29T12:21:24;25.60;1.00
352;DHT22;164;50.784;6.496;2022-07-29T12:23:54;26.00;1.00
352;DHT22;164;50.784;6.496;2022-07-29T12:26:21;26.10;1.00
352;DHT22;164;50.784;6.496;2022-07-29T12:28:48;26.30;1.00
352;DHT22;164;50.784;6.496;2022-07-29T12:31:16;26.50;1.00
352;DHT22;164;50.784;6.496;2022-07-29T12:33:43;26.70;1.00
352;DHT22;164;50.784;6.496;2022-07-29T12:36:19;26.80;1.00
352;DHT22;164;50.784;6.496;2022-07-29T12:38:46;26.80;1.00
352;DHT22;164;50.784;6.496;2022-07-29T12:41:14;26.90;1.00
352;DHT22;164;50.784;6.496;2022-07-29T12:43:52;27.10;1.00
352;DHT22;164;50.784;6.496;2022-07-29T12:46:20;27.40;1.00
352;DHT22;164;50.784;6.496;2022-07-29T12:48:51;27.60;1.00
352;DHT22;164;50.784;6.496;2022-07-29T12:51:28;27.80;1.00
352;DHT22;164;50.784;6.496;2022-07-29T12:54:03;27.60;1.00
352;DHT22;164;50.784;6.496;2022-07-29T12:56:30;27.60;1.00
352;DHT22;164;50.784;6.496;2022-07-29T12:58:57;27.50;1.00
352;DHT22;164;50.784;6.496;2022-07-29T13:01:25;27.30;1.00
352;DHT22;164;50.784;6.496;2022-07-29T13:03:54;26.90;1.00
352;DHT22;164;50.784;6.496;2022-07-29T13:06:36;26.80;1.00
352;DHT22;164;50.784;6.496;2022-07-29T13:09:07;26.50;1.00
352;DHT22;164;50.784;6.496;2022-07-29T13:11:38;26.30;1.00
352;DHT22;164;50.784;6.496;2022-07-29T13:14:07;26.50;1.00
352;DHT22;164;50.784;6.496;2022-07-29T13:16:34;26.70;1.00
352;DHT22;164;50.784;6.496;2022-07-29T13:19:05;26.80;1.00
352;DHT22;164;50.784;6.496;2022-07-29T13:21:34;26.90;1.00
352;DHT22;164;50.784;6.496;2022-07-29T13:24:02;26.80;1.00
352;DHT22;164;50.784;6.496;2022-07-29T13:26:29;26.90;1.00
352;DHT22;164;50.784;6.496;2022-07-29T13:28:57;27.20;1.00
352;DHT22;164;50.784;6.496;2022-07-29T13:31:24;27.40;1.00
352;DHT22;164;50.784;6.496;2022-07-29T13:33:51;27.50;1.00
352;DHT22;164;50.784;6.496;2022-07-29T13:36:18;27.70;1.00
352;DHT22;164;50.784;6.496;2022-07-29T13:38:47;27.90;1.00
352;DHT22;164;50.784;6.496;2022-07-29T13:41:14;27.70;1.00
352;DHT22;164;50.784;6.496;2022-07-29T13:43:41;27.70;1.00
352;DHT22;164;50.784;6.496;2022-07-29T13:46:08;27.90;1.00
352;DHT22;164;50.784;6.496;2022-07-29T13:48:35;28.00;1.00
352;DHT22;164;50.784;6.496;2022-07-29T13:51:02;27.90;1.00
352;DHT22;164;50.784;6.496;2022-07-29T13:53:29;27.50;1.00
352;DHT22;164;50.784;6.496;2022-07-29T13:55:57;27.30;1.00
352;DHT22;164;50.784;6.496;2022-07-29T13:58:24;27.30;1.00
352;DHT22;164;50.784;6.496;2022-07-29T14:00:51;27.30;1.00
352;DHT22;164;50.784;6.496;2022-07-29T14:03:18;26.90;1.00
352;DHT22;164;50.784;6.496;2022-07-29T14:05:45;26.70;1.00
352;DHT22;164;50.784;6.496;2022-07-29T14:08:12;26.80;1.00
352;DHT22;164;50.784;6.496;2022-07-29T14:10:39;26.90;1.00
352;DHT22;164;50.784;6.496;2022-07-29T14:13:07;27.00;1.00
352;DHT22;164;50.784;6.496;2022-07-29T14:15:34;26.90;1.00
352;DHT22;164;50.784;6.496;2022-07-29T14:18:01;27.00;1.00
352;DHT22;164;50.784;6.496;2022-07-29T14:20:28;27.00;1.00
352;DHT22;164;50.784;6.496;2022-07-29T14:22:56;27.10;1.00
352;DHT22;164;50.784;6.496;2022-07-29T14:25:23;27.60;1.00
352;DHT22;164;50.784;6.496;2022-07-29T14:27:50;27.30;1.00
352;DHT22;164;50.784;6.496;2022-07-29T14:30:20;27.40;1.00
352;DHT22;164;50.784;6.496;2022-07-29T14:32:47;27.40;1.00
352;DHT22;164;50.784;6.496;2022-07-29T14:35:14;27.50;1.00
352;DHT22;164;50.784;6.496;2022-07-29T14:37:41;27.70;1.00
352;DHT22;164;50.784;6.496;2022-07-29T14:40:10;27.70;1.00
352;DHT22;164;50.784;6.496;2022-07-29T14:42:37;27.70;1.00
352;DHT22;164;50.784;6.496;2022-07-29T14:45:06;27.90;1.00
352;DHT22;164;50.784;6.496;2022-07-29T14:47:35;27.70;1.00
352;DHT22;164;50.784;6.496;2022-07-29T14:50:03;27.50;1.00
352;DHT22;164;50.784;6.496;2022-07-29T14:52:30;27.60;1.00
352;DHT22;164;50.784;6.496;2022-07-29T14:54:58;28.00;1.00
352;DHT22;164;50.784;6.496;2022-07-29T14:57:25;28.60;1.00
352;DHT22;164;50.784;6.496;2022-07-29T14:59:52;28.60;1.00
352;DHT22;164;50.784;6.496;2022-07-29T15:02:18;29.10;1.00
352;DHT22;164;50.784;6.496;2022-07-29T15:04:47;29.10;1.00
352;DHT22;164;50.784;6.496;2022-07-29T15:07:14;29.30;1.00
352;DHT22;164;50.784;6.496;2022-07-29T15:09:42;30.30;1.00
352;DHT22;164;50.784;6.496;2022-07-29T15:12:10;30.70;1.00
352;DHT22;164;50.784;6.496;2022-07-29T15:14:37;31.20;1.00
352;DHT22;164;50.784;6.496;2022-07-29T15:17:04;31.40;1.00
352;DHT22;164;50.784;6.496;2022-07-29T15:19:31;32.00;1.00
352;DHT22;164;50.784;6.496;2022-07-29T15:21:59;32.20;1.00
352;DHT22;164;50.784;6.496;2022-07-29T15:24:26;32.60;1.00
352;DHT22;164;50.784;6.496;2022-07-29T15:26:53;32.40;1.00
352;DHT22;164;50.784;6.496;2022-07-29T15:29:20;32.90;1.00
352;DHT22;164;50.784;6.496;2022-07-29T15:31:48;33.40;1.00
352;DHT22;164;50.784;6.496;2022-07-29T15:34:15;33.30;1.00
352;DHT22;164;50.784;6.496;2022-07-29T15:36:42;32.90;1.00
352;DHT22;164;50.784;6.496;2022-07-29T15:39:10;32.90;1.00
352;DHT22;164;50.784;6.496;2022-07-29T15:41:37;32.50;1.00
352;DHT22;164;50.784;6.496;2022-07-29T15:44:04;32.80;1.00
352;DHT22;164;50.784;6.496;2022-07-29T15:46:31;32.20;1.00
352;DHT22;164;50.784;6.496;2022-07-29T15:49:15;32.60;1.00
352;DHT22;164;50.784;6.496;2022-07-29T15:51:42;32.30;1.00
352;DHT22;164;50.784;6.496;2022-07-29T15:54:10;31.80;1.00
352;DHT22;164;50.784;6.496;2022-07-29T15:56:38;30.80;1.00
352;DHT22;164;50.784;6.496;2022-07-29T15:59:05;30.90;1.00
352;DHT22;164;50.784;6.496;2022-07-29T16:01:31;31.00;1.00
352;DHT22;164;50.784;6.496;2022-07-29T16:03:58;31.10;1.00
352;DHT22;164;50.784;6.496;2022-07-29T16:06:25;30.80;1.00
352;DHT22;164;50.784;6.496;2022-07-29T16:08:52;30.10;1.00
352;DHT22;164;50.784;6.496;2022-07-29T16:11:21;30.00;1.00
352;DHT22;164;50.784;6.496;2022-07-29T16:13:48;29.90;1.00
352;DHT22;164;50.784;6.496;2022-07-29T16:16:15;30.30;1.00
352;DHT22;164;50.784;6.496;2022-07-29T16:18:43;31.20;1.00
352;DHT22;164;50.784;6.496;2022-07-29T16:21:10;31.80;1.00
352;DHT22;164;50.784;6.496;2022-07-29T16:23:37;32.00;1.00
352;DHT22;164;50.784;6.496;2022-07-29T16:26:04;31.50;1.00
352;DHT22;164;50.784;6.496;2022-07-29T16:28:33;30.80;1.00
352;DHT22;164;50.784;6.496;2022-07-29T16:31:00;30.30;1.00
352;DHT22;164;50.784;6.496;2022-07-29T16:33:27;29.90;1.00
352;DHT22;164;50.784;6.496;2022-07-29T16:35:54;29.70;1.00
352;DHT22;164;50.784;6.496;2022-07-29T16:38:21;29.60;1.00
352;DHT22;164;50.784;6.496;2022-07-29T16:40:48;29.30;1.00
352;DHT22;164;50.784;6.496;2022-07-29T16:43:15;28.70;1.00
352;DHT22;164;50.784;6.496;2022-07-29T16:45:44;28.50;1.00
352;DHT22;164;50.784;6.496;2022-07-29T16:48:11;28.20;1.00
352;DHT22;164;50.784;6.496;2022-07-29T16:50:38;28.30;1.00
352;DHT22;164;50.784;6.496;2022-07-29T16:53:06;28.80;1.00
352;DHT22;164;50.784;6.496;2022-07-29T16:55:33;29.60;1.00
352;DHT22;164;50.784;6.496;2022-07-29T16:58:00;30.20;1.00
352;DHT22;164;50.784;6.496;2022-07-29T17:00:27;30.80;1.00
352;DHT22;164;50.784;6.496;2022-07-29T17:02:55;31.20;1.00
352;DHT22;164;50.784;6.496;2022-07-29T17:05:24;30.80;1.00
352;DHT22;164;50.784;6.496;2022-07-29T17:07:51;30.80;1.00
352;DHT22;164;50.784;6.496;2022-07-29T17:10:18;30.80;1.00
352;DHT22;164;50.784;6.496;2022-07-29T17:12:47;30.30;1.00
352;DHT22;164;50.784;6.496;2022-07-29T17:15:14;29.70;1.00
352;DHT22;164;50.784;6.496;2022-07-29T17:17:43;29.20;1.00
352;DHT22;164;50.784;6.496;2022-07-29T17:20:12;28.60;1.00